Rixey, Arkansas
Current Conditions -  °F | °C
As of 6:53 PM on Sunday 23 Nov 2014 (Local Time) from KLIT Reporting Station
Broken Clouds Broken Clouds  
Wind Chill: 62°   Ceiling: 7000
Heat Index: 62°   Visibility: 10mi
Dew Point: 58°   Wind: 6mph
Humidity: 86%   Direction: 170°S
Pressure: 29.41"   Gusts: NA
Location:  34.757°N, 92.1411°W
Report Text: KLIT 240053Z 17005KT 10SM FEW011 BKN070 17/14 A2941 RMK AO2 SLP960 T01670144
Loading
Personal Weather Stations






























Interactive Weather Map New forecast layout! Learn more

10-Day Weather Forecast

Advertisements
Track Severe Weather on mobile